Time;durP1;ratioP1;P1;durP2;ratioP2;P2;SDS_P1;SDS_P2;PMS_P1;PMS_P2;Temp;Humidity;BMP_temperature;BMP_pressure;BME280_temperature;BME280_humidity;BME280_pressure;Samples;Min_cycle;Max_cycle;Signal;HPM_P1;HPM_P2
2023/01/10 00:01:51;;;;;;;3.67;1.70;;;5.20;89.20;;;4.60;80.86;97456.34;5084253;28;20460;-72
2023/01/10 00:04:19;;;;;;;7.83;2.00;;;5.10;89.00;;;4.84;81.32;97462.34;5062813;28;20518;-71
2023/01/10 00:06:46;;;;;;;4.83;2.03;;;5.20;89.80;;;4.88;80.76;97472.47;5069417;28;20450;-73
2023/01/10 00:09:13;;;;;;;2.80;2.30;;;5.20;89.80;;;4.79;80.52;97465.59;5087195;28;20978;-72
2023/01/10 00:14:29;;;;;;;2.10;1.90;;;5.20;89.70;;;4.85;81.15;97474.72;5069615;28;20451;-72
2023/01/10 00:16:56;;;;;;;6.70;2.17;;;5.20;90.00;;;4.80;80.57;97472.59;5087961;28;20462;-70
2023/01/10 00:19:23;;;;;;;2.57;2.17;;;5.20;89.20;;;4.76;80.95;97480.19;5090010;28;20454;-71
2023/01/10 00:21:51;;;;;;;4.43;2.30;;;5.20;89.80;;;4.65;81.02;97492.22;5078122;28;20516;-72
2023/01/10 00:24:18;;;;;;;2.80;2.13;;;5.10;89.70;;;4.80;80.82;97497.53;5073255;28;20451;-72
2023/01/10 00:26:50;;;;;;;2.23;2.03;;;5.20;90.00;;;4.96;80.24;97492.94;5088496;28;20452;-72
2023/01/10 00:29:19;;;;;;;2.87;2.47;;;5.30;90.00;;;4.95;80.13;97496.63;5088712;28;20462;-73
2023/01/10 00:31:48;;;;;;;3.13;2.40;;;5.30;89.80;;;4.86;80.66;97498.63;5083477;28;20471;-71
2023/01/10 00:34:16;;;;;;;2.93;2.10;;;5.20;89.70;;;4.89;80.65;97492.88;5093290;28;20443;-71
2023/01/10 00:36:44;;;;;;;3.00;2.60;;;5.30;89.20;;;4.75;80.43;97493.78;5088336;28;20801;-71
2023/01/10 00:39:12;;;;;;;6.63;2.70;;;5.30;89.60;;;4.88;80.05;97495.72;5071224;28;20625;-71
2023/01/10 00:44:25;;;;;;;2.90;2.37;;;5.30;89.40;;;4.98;79.50;97509.63;5081318;28;20802;-72
2023/01/10 00:46:54;;;;;;;3.57;1.90;;;5.40;88.70;;;5.03;79.55;97512.56;5087959;28;20458;-72
2023/01/10 00:49:22;;;;;;;2.73;2.50;;;5.40;88.20;;;5.02;79.62;97512.78;5089492;28;20955;-72
2023/01/10 00:51:49;;;;;;;2.77;2.57;;;5.40;88.50;;;5.06;79.65;97514.84;5071211;28;20440;-72
2023/01/10 00:54:17;;;;;;;2.10;1.77;;;5.40;88.80;;;4.94;80.29;97524.44;5089096;28;20864;-72
2023/01/10 00:56:44;;;;;;;2.63;2.43;;;5.40;88.70;;;4.95;80.28;97518.88;5087243;28;20520;-70
2023/01/10 00:59:11;;;;;;;4.90;2.50;;;5.40;88.80;;;4.93;79.47;97528.13;5060852;28;20864;-71
2023/01/10 01:01:38;;;;;;;2.40;2.20;;;5.40;88.30;;;4.80;80.81;97532.34;5068276;28;20537;-72
2023/01/10 01:04:07;;;;;;;5.70;3.00;;;5.30;88.10;;;4.81;80.64;97531.31;5067490;28;20459;-71
2023/01/10 01:06:34;;;;;;;2.77;2.57;;;5.30;88.60;;;4.95;80.04;97539.47;5070975;28;20890;-71
2023/01/10 01:09:01;;;;;;;3.13;2.60;;;5.30;89.00;;;5.05;79.72;97539.97;5089981;28;20966;-71
2023/01/10 01:11:28;;;;;;;2.63;2.27;;;5.40;89.00;;;5.11;80.14;97543.72;5088774;28;20444;-72
2023/01/10 01:13:56;;;;;;;3.00;2.40;;;5.40;89.10;;;4.89;79.66;97553.59;5080668;28;20469;-70
2023/01/10 01:16:23;;;;;;;4.40;2.77;;;5.30;88.50;;;4.78;80.61;97555.78;5087936;28;20452;-72
2023/01/10 01:18:50;;;;;;;2.67;2.37;;;5.30;88.90;;;4.91;80.52;97570.31;5092172;28;20450;-70
2023/01/10 01:21:20;;;;;;;4.97;2.67;;;5.30;89.40;;;4.79;81.25;97564.63;5088440;28;20459;-70
2023/01/10 01:23:47;;;;;;;3.10;2.80;;;5.30;89.20;;;4.99;80.08;97572.88;5087776;28;20994;-70
2023/01/10 01:26:14;;;;;;;3.40;2.60;;;5.30;89.50;;;4.86;80.54;97588.78;5085008;28;20460;-71
2023/01/10 01:28:41;;;;;;;3.73;2.67;;;5.30;89.30;;;4.97;80.21;97578.41;5087708;28;20857;-71
2023/01/10 01:31:09;;;;;;;2.83;2.63;;;5.30;90.00;;;5.01;79.74;97592.25;5069393;28;20457;-71
2023/01/10 01:33:37;;;;;;;3.00;2.50;;;5.40;89.00;;;4.95;80.66;97598.38;5087895;28;20459;-70
2023/01/10 01:36:09;;;;;;;3.20;2.50;;;5.30;89.20;;;5.00;80.77;97601.31;5086812;28;20501;-69
2023/01/10 01:38:38;;;;;;;3.30;3.00;;;5.30;89.50;;;4.96;80.10;97608.06;5088746;28;20940;-69
2023/01/10 01:41:55;;;;;;;2.90;2.70;;;5.40;89.80;;;4.95;80.83;97606.41;5088179;28;20972;-71
2023/01/10 01:44:02;;;;;;;3.50;2.47;;;5.30;89.70;;;4.88;81.03;97610.84;5088489;28;20466;-70
2023/01/10 01:46:30;;;;;;;3.20;2.23;;;5.30;89.60;;;5.01;80.63;97608.31;5087313;28;20501;-70
2023/01/10 01:48:57;;;;;;;2.83;2.57;;;5.30;90.30;;;4.89;80.83;97615.19;5091695;28;20451;-70
2023/01/10 01:51:29;;;;;;;2.80;2.60;;;5.30;90.00;;;5.02;79.91;97620.69;5092836;28;20455;-71
2023/01/10 01:54:02;;;;;;;2.50;2.30;;;5.30;89.60;;;5.01;80.40;97618.22;5090914;28;20443;-70
2023/01/10 01:56:36;;;;;;;4.80;2.87;;;5.30;89.40;;;5.01;80.28;97619.03;5073825;28;20460;-70
2023/01/10 01:59:11;;;;;;;4.33;2.70;;;5.30;89.50;;;4.96;80.43;97616.91;5071486;28;20562;-71
2023/01/10 02:01:40;;;;;;;2.60;2.40;;;5.40;89.60;;;4.96;79.86;97637.53;5090813;28;20524;-70
2023/01/10 02:04:12;;;;;;;2.57;2.37;;;5.40;89.00;;;5.00;80.02;97633.44;5070946;28;20450;-71
2023/01/10 02:06:40;;;;;;;3.03;2.63;;;5.30;89.60;;;5.08;80.57;97633.34;5071123;28;20437;-72
2023/01/10 02:09:18;;;;;;;2.87;2.63;;;5.30;89.70;;;5.09;79.26;97632.31;5084149;28;20476;-69
2023/01/10 02:11:46;;;;;;;2.70;2.50;;;5.40;89.00;;;4.98;79.65;97635.47;5086252;28;20447;-70
2023/01/10 02:14:15;;;;;;;2.90;2.70;;;5.40;88.90;;;4.92;80.34;97641.56;5096028;28;20516;-72
2023/01/10 02:16:42;;;;;;;3.10;2.73;;;5.30;89.70;;;5.11;80.67;97648.19;5071789;28;20460;-70
2023/01/10 02:19:24;;;;;;;3.27;2.80;;;5.40;90.10;;;5.19;79.63;97650.75;5087680;28;20497;-71
2023/01/10 02:22:44;;;;;;;3.30;3.10;;;5.40;89.90;;;5.20;79.40;97640.84;5085266;28;20487;-72
2023/01/10 02:26:04;;;;;;;3.00;2.80;;;5.50;89.80;;;5.17;79.94;97644.75;5086688;28;20761;-70
2023/01/10 02:29:05;;;;;;;3.67;2.73;;;5.50;89.50;;;5.10;80.56;97644.69;5048744;28;20457;-71
2023/01/10 02:32:09;;;;;;;2.77;2.47;;;5.40;89.60;;;4.96;81.07;97645.56;5075820;28;20467;-71
2023/01/10 02:34:50;;;;;;;2.63;2.43;;;5.30;90.20;;;4.94;80.78;97648.41;5054638;28;20528;-71
2023/01/10 02:37:26;;;;;;;2.83;2.50;;;5.30;90.20;;;4.97;80.66;97666.75;5098449;28;20808;-71
2023/01/10 02:39:58;;;;;;;2.87;2.67;;;5.40;89.50;;;4.93;80.43;97657.47;5076821;28;20465;-72
2023/01/10 02:42:35;;;;;;;3.50;3.20;;;5.30;89.90;;;4.91;80.59;97672.88;5087015;28;20975;-72
2023/01/10 02:45:12;;;;;;;2.90;2.70;;;5.30;90.10;;;4.84;80.33;97655.09;5087376;28;20512;-72
2023/01/10 02:47:42;;;;;;;2.90;2.70;;;5.40;90.10;;;4.91;81.08;97667.53;5068354;28;20440;-72
2023/01/10 02:50:31;;;;;;;2.77;2.57;;;5.30;90.00;;;4.71;81.10;97651.22;5088551;28;20566;-71
2023/01/10 02:53:04;;;;;;;2.73;2.53;;;5.30;89.90;;;4.81;81.10;97670.50;5080553;28;20453;-71
2023/01/10 02:55:43;;;;;;;3.43;2.57;;;5.30;90.10;;;4.88;81.30;97686.66;5073314;28;20478;-71
2023/01/10 02:58:25;;;;;;;4.10;2.90;;;5.30;90.40;;;4.76;nan;97685.47;5086330;28;20463;-69
2023/01/10 03:01:01;;;;;;;3.33;3.03;;;5.30;90.40;;;4.77;82.04;97698.63;5089167;28;20479;-71
2023/01/10 03:03:41;;;;;;;3.87;2.50;;;5.30;90.50;;;4.80;81.71;97676.03;5087273;28;20447;-71
2023/01/10 03:06:23;;;;;;;2.87;2.67;;;5.30;90.70;;;4.89;81.51;97698.16;5077816;28;20452;-71
2023/01/10 03:08:57;;;;;;;4.03;3.47;;;5.30;90.60;;;4.86;81.47;97698.56;5087590;28;20550;-71
2023/01/10 03:11:39;;;;;;;3.63;3.33;;;5.30;90.60;;;4.87;81.72;97718.94;5081891;28;20467;-72
2023/01/10 03:14:13;;;;;;;4.73;3.37;;;5.30;90.50;;;4.93;82.37;97718.22;5086005;28;20868;-69
2023/01/10 03:16:47;;;;;;;5.93;3.10;;;5.40;91.00;;;4.77;82.43;97708.53;5082115;28;20506;-70
2023/01/10 03:19:20;;;;;;;3.57;3.27;;;5.30;90.90;;;4.75;82.33;97724.75;5082104;28;20455;-73
2023/01/10 03:21:52;;;;;;;3.73;3.30;;;5.30;91.00;;;4.87;82.39;97730.50;5085562;28;20879;-73
2023/01/10 03:24:28;;;;;;;4.70;4.13;;;5.30;91.50;;;4.90;82.64;97724.78;5067610;28;20471;-72
2023/01/10 03:27:00;;;;;;;5.23;3.83;;;5.30;91.30;;;4.91;82.28;97725.59;5069262;28;20795;-72
2023/01/10 03:29:36;;;;;;;4.50;3.60;;;5.40;91.00;;;5.01;81.93;97736.03;5086242;28;20525;-72
2023/01/10 03:32:06;;;;;;;5.13;3.77;;;5.40;91.30;;;5.05;82.23;97751.53;5066541;28;20481;-71
2023/01/10 03:34:35;;;;;;;4.37;3.97;;;5.40;91.20;;;5.04;82.12;97751.72;5069512;28;20513;-72
2023/01/10 03:37:10;;;;;;;5.67;3.60;;;5.40;90.90;;;4.90;82.66;97750.69;5085707;28;20487;-72
2023/01/10 03:39:50;;;;;;;4.20;3.80;;;5.40;91.50;;;4.92;83.06;97764.72;5071763;28;20733;-72
2023/01/10 03:44:42;;;;;;;4.40;4.00;;;5.30;91.30;;;4.79;82.63;97758.19;5067757;28;20483;-71
2023/01/10 03:45:22;;;;;;;4.43;4.03;;;5.30;91.20;;;4.94;82.47;97763.53;5082583;28;20459;-71
2023/01/10 03:47:51;;;;;;;4.67;4.27;;;5.40;91.20;;;5.01;82.35;97774.34;5079112;28;20470;-72
2023/01/10 03:50:22;;;;;;;4.40;4.00;;;5.40;91.20;;;4.90;82.98;97772.13;5088224;28;20530;-72
2023/01/10 03:52:50;;;;;;;4.70;4.30;;;5.40;91.30;;;4.93;82.84;97794.00;5067209;28;20448;-72
2023/01/10 03:55:21;;;;;;;4.90;4.50;;;5.40;91.50;;;4.79;82.88;97802.84;5089023;28;20475;-71
2023/01/10 03:57:48;;;;;;;4.40;4.00;;;5.30;91.20;;;4.93;82.58;97793.19;5089328;28;20485;-71
2023/01/10 04:00:17;;;;;;;4.50;4.10;;;5.40;91.40;;;5.00;82.44;97812.84;5079800;28;20455;-71
2023/01/10 04:02:44;;;;;;;5.90;4.57;;;5.50;90.80;;;4.96;82.34;97811.56;5082654;28;20510;-72
2023/01/10 04:05:12;;;;;;;4.47;4.07;;;5.50;90.70;;;4.84;82.57;97813.84;5076983;28;20881;-71
2023/01/10 04:07:40;;;;;;;4.40;3.90;;;5.40;91.10;;;4.74;82.68;97816.78;5091166;28;20460;-70
2023/01/10 04:10:10;;;;;;;4.80;3.70;;;5.40;91.00;;;4.68;82.59;97812.19;5068859;28;20564;-71
2023/01/10 04:12:37;;;;;;;4.30;3.90;;;5.30;90.90;;;4.67;83.51;97821.22;5082575;28;20448;-73
2023/01/10 04:15:06;;;;;;;4.63;3.90;;;5.30;91.00;;;4.66;82.78;97831.09;5087368;28;20999;-70
2023/01/10 04:17:33;;;;;;;4.43;3.90;;;5.30;91.10;;;4.73;83.10;97833.88;5070465;28;20796;-71
2023/01/10 04:20:00;;;;;;;4.57;4.07;;;5.20;91.40;;;4.81;83.10;97831.13;5089453;28;20492;-71
2023/01/10 04:22:27;;;;;;;4.90;4.33;;;5.30;91.50;;;4.65;83.99;97840.13;5066262;28;20916;-71
2023/01/10 04:24:56;;;;;;;5.57;4.50;;;5.20;91.50;;;4.77;83.77;97843.19;5084692;28;20439;-72
2023/01/10 04:27:23;;;;;;;5.07;4.60;;;5.30;91.80;;;4.77;83.33;97853.88;5085911;28;20456;-72
2023/01/10 04:29:52;;;;;;;6.27;4.73;;;5.30;91.50;;;4.65;84.18;97850.84;5089641;28;20447;-71
2023/01/10 04:32:19;;;;;;;5.00;4.60;;;5.20;91.70;;;4.70;84.41;97863.69;5083046;28;20565;-71
2023/01/10 04:34:46;;;;;;;4.70;4.30;;;5.30;91.80;;;4.70;84.36;97869.03;5068889;28;20554;-72
2023/01/10 04:37:13;;;;;;;7.03;5.30;;;5.30;92.00;;;4.66;83.92;97867.75;5092791;28;20460;-71
2023/01/10 04:39:40;;;;;;;5.53;5.00;;;5.20;92.00;;;4.73;83.86;97882.03;5086946;28;20444;-71
2023/01/10 04:42:09;;;;;;;6.17;5.57;;;5.20;92.30;;;4.66;84.37;97867.75;5067903;28;20821;-71
2023/01/10 04:44:37;;;;;;;5.37;4.73;;;5.20;92.20;;;4.61;84.71;97881.66;5083107;28;20537;-72
2023/01/10 04:47:04;;;;;;;7.80;5.93;;;5.20;92.10;;;4.65;84.18;97888.28;5069568;28;20584;-72
2023/01/10 04:49:31;;;;;;;5.47;4.90;;;5.20;92.20;;;4.62;84.29;97901.19;5089074;28;20520;-72
2023/01/10 04:51:59;;;;;;;5.90;5.03;;;5.20;92.10;;;4.66;84.45;97915.91;5066721;28;20827;-71
2023/01/10 04:54:26;;;;;;;6.87;5.43;;;5.20;92.10;;;4.74;83.61;97902.44;5086409;28;20448;-71
2023/01/10 04:56:53;;;;;;;5.83;5.23;;;5.20;91.90;;;4.70;83.95;97905.66;5093102;28;20529;-72
2023/01/10 04:59:22;;;;;;;5.70;5.20;;;5.20;92.00;;;4.56;84.11;97891.22;5084091;28;20486;-72
2023/01/10 05:01:49;;;;;;;6.33;5.03;;;5.20;91.80;;;4.64;83.43;97912.59;5090739;28;20536;-71
2023/01/10 05:04:17;;;;;;;9.00;5.03;;;5.20;91.50;;;4.62;84.08;97914.59;5092957;28;20467;-71
2023/01/10 05:06:44;;;;;;;5.97;5.27;;;5.20;91.50;;;4.58;84.35;97918.63;5089724;28;20456;-71
2023/01/10 05:09:11;;;;;;;6.03;4.97;;;5.20;91.70;;;4.57;83.78;97928.53;5065771;28;20599;-71
2023/01/10 05:11:38;;;;;;;6.33;5.70;;;5.20;91.50;;;4.69;83.18;97931.59;5063133;28;21057;-72
2023/01/10 05:14:06;;;;;;;6.27;4.83;;;5.20;91.90;;;4.73;82.76;97945.47;5087775;28;20580;-73
2023/01/10 05:16:35;;;;;;;5.20;4.70;;;5.20;91.00;;;4.65;83.40;97947.19;5074459;28;20452;-71
2023/01/10 05:19:03;;;;;;;6.67;5.03;;;5.20;91.20;;;4.56;84.59;97964.31;5086771;28;20477;-74
2023/01/10 05:21:30;;;;;;;6.10;5.03;;;5.10;91.70;;;4.59;84.86;97966.63;5090755;28;20481;-71
2023/01/10 05:23:57;;;;;;;5.93;5.33;;;5.10;92.50;;;4.44;84.16;97966.56;5072055;28;20811;-71
2023/01/10 05:26:24;;;;;;;6.90;5.00;;;5.10;92.20;;;4.45;84.39;97964.72;5091210;28;20452;-70
2023/01/10 05:28:51;;;;;;;9.90;6.13;;;5.00;92.30;;;4.52;84.29;97976.38;5074936;28;20943;-70
2023/01/10 05:31:20;;;;;;;7.80;5.20;;;5.00;92.40;;;4.37;84.62;97960.25;5091289;28;20467;-71
2023/01/10 05:33:51;;;;;;;5.77;5.10;;;5.00;92.40;;;4.46;84.01;97977.91;5094495;28;20915;-72
2023/01/10 05:36:19;;;;;;;5.60;4.90;;;5.00;91.70;;;4.45;83.79;97968.22;5093450;28;21294;-70
2023/01/10 05:38:46;;;;;;;6.40;5.10;;;5.10;91.70;;;4.60;83.14;97992.38;5087260;28;20471;-69
2023/01/10 05:41:14;;;;;;;8.93;5.40;;;5.10;91.50;;;4.57;83.66;97991.91;5089849;28;20616;-70
2023/01/10 05:43:41;;;;;;;6.77;5.50;;;5.10;91.30;;;4.60;81.94;97995.06;5088720;28;20459;-69
2023/01/10 05:46:08;;;;;;;6.33;5.13;;;5.10;90.60;;;4.65;81.85;98015.94;5086083;28;20546;-69
2023/01/10 05:48:36;;;;;;;6.67;5.13;;;5.20;90.60;;;4.73;81.99;98018.56;5086829;28;20565;-69
2023/01/10 05:51:04;;;;;;;5.87;4.83;;;5.20;90.20;;;4.68;81.18;98016.41;5071542;28;20471;-69
2023/01/10 05:53:32;;;;;;;6.03;4.77;;;5.20;89.80;;;4.78;81.72;98029.59;5085141;28;20455;-70
2023/01/10 05:56:02;;;;;;;10.30;4.73;;;5.20;90.00;;;4.72;80.74;98024.09;5089436;28;20498;-69
2023/01/10 05:58:29;;;;;;;7.57;5.03;;;5.20;89.40;;;4.74;80.84;98036.28;5076946;28;20463;-71
2023/01/10 06:00:58;;;;;;;6.40;5.00;;;5.30;89.00;;;4.89;79.87;98032.84;5097181;28;20974;-70
2023/01/10 06:03:26;;;;;;;5.90;4.10;;;5.30;88.50;;;4.71;80.88;98042.00;5077813;28;20487;-68
2023/01/10 06:05:53;;;;;;;5.50;4.47;;;5.30;88.60;;;4.88;79.98;98047.22;5090840;28;20596;-70
2023/01/10 06:08:22;;;;;;;7.77;5.40;;;5.40;88.40;;;4.81;80.43;98053.31;5086196;28;20529;-67
2023/01/10 06:10:49;;;;;;;6.77;4.83;;;5.30;88.30;;;4.84;80.31;98062.00;5097243;28;20476;-66
2023/01/10 06:13:17;;;;;;;7.77;4.60;;;5.30;88.20;;;4.98;79.83;98058.56;5084052;28;20512;-67
2023/01/10 06:15:44;;;;;;;8.87;4.97;;;5.40;88.20;;;4.99;79.70;98064.72;5088428;28;20564;-66
2023/01/10 06:18:12;;;;;;;5.07;4.27;;;5.40;87.70;;;4.94;79.57;98067.97;5090722;28;20491;-66
2023/01/10 06:20:39;;;;;;;6.23;5.17;;;5.50;87.10;;;5.06;79.74;98069.19;5070652;28;20966;-66
2023/01/10 06:23:06;;;;;;;5.50;4.50;;;5.40;87.60;;;5.00;79.38;98077.94;5070258;28;20854;-66
2023/01/10 06:25:39;;;;;;;5.07;4.07;;;5.50;87.00;;;5.05;79.00;98080.91;5086225;28;20946;-67
2023/01/10 06:28:06;;;;;;;6.73;5.10;;;5.50;87.00;;;5.04;79.80;98084.59;5080819;28;20497;-69
2023/01/10 06:30:34;;;;;;;8.67;4.60;;;5.50;87.30;;;4.92;79.13;98089.53;5072958;28;20564;-66
2023/01/10 06:33:02;;;;;;;5.80;4.60;;;5.50;86.40;;;4.96;79.04;98095.38;5087568;28;20644;-67
2023/01/10 06:35:29;;;;;;;6.67;4.30;;;5.40;86.30;;;4.93;79.01;98101.91;5081459;28;20467;-66
2023/01/10 06:37:57;;;;;;;7.30;4.90;;;5.40;86.20;;;4.93;79.41;98103.78;5094215;28;20451;-65
2023/01/10 06:40:25;;;;;;;5.03;4.47;;;5.40;86.10;;;5.05;78.64;98112.22;5093218;28;20462;-66
2023/01/10 06:42:54;;;;;;;7.40;4.23;;;5.40;86.30;;;5.07;78.33;98121.75;5071179;28;20979;-66
2023/01/10 06:45:21;;;;;;;5.57;3.67;;;5.50;86.00;;;4.91;78.69;98130.72;5078194;28;20519;-66
2023/01/10 06:47:48;;;;;;;5.07;4.23;;;5.40;85.50;;;5.02;78.36;98126.81;5083492;28;20575;-65
2023/01/10 06:50:15;;;;;;;5.90;4.27;;;5.40;85.60;;;4.96;78.02;98140.91;5092488;28;20949;-67
2023/01/10 06:52:43;;;;;;;5.03;3.57;;;5.40;85.40;;;4.85;78.38;98130.59;5086028;28;20478;-68
2023/01/10 06:55:10;;;;;;;5.97;4.13;;;5.40;85.40;;;4.91;78.37;98148.63;5081171;28;20594;-66
2023/01/10 06:57:37;;;;;;;6.50;4.70;;;5.40;85.70;;;5.08;78.18;98152.91;5078022;28;20474;-68
2023/01/10 07:00:10;;;;;;;6.27;3.90;;;5.40;85.70;;;5.04;78.34;98175.66;5078779;28;20456;-67
2023/01/10 07:02:37;;;;;;;5.67;3.93;;;5.40;85.70;;;4.99;78.01;98179.88;5084699;28;20459;-66
2023/01/10 07:05:06;;;;;;;4.90;3.97;;;5.40;85.50;;;5.15;78.22;98187.00;5060927;28;20467;-67
2023/01/10 07:07:33;;;;;;;4.60;3.50;;;5.40;85.60;;;4.99;77.92;98191.44;5080432;28;20505;-66
2023/01/10 07:10:00;;;;;;;10.50;3.93;;;5.40;85.40;;;4.89;78.38;98197.00;5061590;28;20448;-66
2023/01/10 07:12:27;;;;;;;7.20;4.30;;;5.40;85.30;;;4.99;77.71;98204.81;5081380;28;20467;-66
2023/01/10 07:14:54;;;;;;;5.97;3.67;;;5.40;85.50;;;4.97;78.20;98201.50;5070579;28;20767;-67
2023/01/10 07:17:23;;;;;;;7.50;4.20;;;5.30;85.60;;;4.80;78.64;98206.91;5063042;28;20963;-65
2023/01/10 07:19:50;;;;;;;6.23;3.57;;;5.30;85.40;;;4.82;78.95;98220.13;5082087;28;20487;-66
2023/01/10 07:22:17;;;;;;;6.30;4.63;;;5.30;85.80;;;5.01;78.46;98221.53;5084564;28;20538;-67
2023/01/10 07:24:44;;;;;;;4.73;3.53;;;5.30;85.90;;;5.05;78.35;98228.22;5081893;28;20455;-66
2023/01/10 07:27:11;;;;;;;6.17;3.90;;;5.40;85.90;;;5.13;77.52;98226.53;5074599;28;20552;-67
2023/01/10 07:29:38;;;;;;;7.73;4.20;;;5.40;85.70;;;4.97;80.25;98180.06;5081777;28;20549;-67
2023/01/10 07:32:06;;;;;;;8.30;4.27;;;5.50;89.50;;;5.33;78.54;98238.44;5082372;28;20531;-69
2023/01/10 07:34:34;;;;;;;4.70;3.40;;;5.60;87.80;;;5.15;78.26;98249.41;5080942;28;20483;-67
2023/01/10 07:37:02;;;;;;;4.80;3.00;;;5.60;85.60;;;4.99;77.29;98253.03;5084096;28;20783;-68
2023/01/10 07:39:29;;;;;;;4.17;3.07;;;5.50;84.20;;;5.03;77.34;98262.38;5083773;28;20477;-67
2023/01/10 07:41:56;;;;;;;4.23;2.40;;;5.50;84.50;;;4.89;77.34;98263.09;5061541;28;20508;-67
2023/01/10 07:44:23;;;;;;;5.30;2.83;;;5.50;84.00;;;4.89;77.51;98271.13;5086255;28;20497;-67
2023/01/10 07:46:50;;;;;;;5.43;2.87;;;5.40;84.30;;;5.03;77.25;98274.94;5067265;28;20475;-68
2023/01/10 07:49:17;;;;;;;5.40;3.43;;;5.40;84.40;;;5.00;77.86;98281.47;5065152;28;21036;-67
2023/01/10 07:51:46;;;;;;;6.03;3.00;;;5.40;84.40;;;5.16;77.47;98290.44;5065417;28;20475;-68
2023/01/10 07:54:13;;;;;;;9.80;3.80;;;5.40;85.00;;;5.23;76.96;98296.78;5059171;28;20967;-67
2023/01/10 07:56:40;;;;;;;4.13;2.97;;;5.50;84.30;;;5.08;77.14;98292.16;5087758;28;20464;-67
2023/01/10 07:59:07;;;;;;;5.77;3.70;;;5.50;84.10;;;5.31;76.42;98295.94;5086446;28;21215;-66
2023/01/10 08:01:34;;;;;;;4.10;2.80;;;5.60;84.20;;;5.37;76.38;98308.63;5059127;28;20444;-66
2023/01/10 08:04:02;;;;;;;6.23;3.17;;;5.70;83.80;;;5.35;76.30;98314.13;5078968;28;20456;-66
2023/01/10 08:06:29;;;;;;;5.43;3.27;;;5.70;83.60;;;5.32;75.90;98306.44;5083911;28;20462;-66
2023/01/10 08:08:58;;;;;;;3.77;3.03;;;5.70;83.60;;;5.39;76.43;98314.63;5068374;28;20456;-66
2023/01/10 08:11:25;;;;;;;5.57;2.73;;;5.70;84.10;;;5.24;76.32;98325.25;5058817;28;20571;-67
2023/01/10 08:13:52;;;;;;;4.63;2.67;;;5.60;83.60;;;5.16;77.26;98327.94;5064322;28;20550;-67
2023/01/10 08:16:20;;;;;;;6.27;3.57;;;5.60;83.80;;;5.18;76.95;98321.44;5082756;28;20538;-67
2023/01/10 08:18:47;;;;;;;4.90;3.03;;;5.60;83.90;;;5.21;76.06;98325.56;5083736;28;20558;-66
2023/01/10 08:21:14;;;;;;;3.57;3.27;;;5.60;83.70;;;5.30;76.29;98319.19;5086315;28;20464;-65
2023/01/10 08:23:41;;;;;;;4.50;2.83;;;5.60;83.80;;;5.49;75.40;98330.50;5086187;28;20456;-67
2023/01/10 08:26:10;;;;;;;4.10;3.13;;;5.70;83.60;;;5.41;76.01;98325.19;5066402;28;20475;-65
2023/01/10 08:28:37;;;;;;;3.40;3.10;;;5.70;83.60;;;5.42;75.58;98327.66;5075275;28;20489;-67
2023/01/10 08:31:08;;;;;;;3.63;2.80;;;5.70;83.30;;;5.55;74.76;98337.84;5079928;28;20528;-67
2023/01/10 08:33:37;;;;;;;4.60;2.90;;;5.90;83.10;;;5.46;74.99;98339.72;5066934;28;20448;-69
2023/01/10 08:36:05;;;;;;;3.40;2.93;;;5.90;82.90;;;5.32;75.62;98343.97;5086660;28;20513;-68
2023/01/10 08:38:32;;;;;;;6.47;3.87;;;5.80;82.60;;;5.58;75.03;98345.53;5082979;28;20544;-67
2023/01/10 08:41:00;;;;;;;3.33;2.57;;;5.80;82.80;;;5.56;74.95;98377.03;5086552;28;20448;-68
2023/01/10 08:43:28;;;;;;;6.30;2.80;;;5.90;82.80;;;5.78;74.29;98353.97;5083790;28;20539;-69
2023/01/10 08:45:55;;;;;;;6.57;3.07;;;6.00;83.10;;;5.59;74.03;98374.00;5062738;28;20866;-68
2023/01/10 08:48:23;;;;;;;5.40;2.77;;;6.00;82.10;;;5.49;74.54;98359.97;5084342;28;20656;-67
2023/01/10 08:50:50;;;;;;;6.33;2.87;;;5.90;82.40;;;5.53;75.04;98361.28;5068327;28;20504;-66
2023/01/10 08:53:17;;;;;;;10.27;3.43;;;5.90;82.60;;;5.54;74.51;98346.91;5080449;28;20932;-67
2023/01/10 08:55:44;;;;;;;5.40;3.70;;;5.90;82.30;;;5.56;74.58;98355.59;5078389;28;20467;-67
2023/01/10 08:58:11;;;;;;;7.43;3.73;;;5.90;82.40;;;5.66;74.53;98361.56;5066017;28;20487;-67
2023/01/10 09:00:40;;;;;;;5.60;3.43;;;5.90;82.20;;;5.75;74.43;98364.22;5082727;28;20509;-67
2023/01/10 09:03:07;;;;;;;5.43;3.80;;;6.00;82.00;;;5.59;73.56;98367.78;5083132;28;20455;-67
2023/01/10 09:05:34;;;;;;;7.47;3.80;;;6.10;81.50;;;5.67;74.40;98373.94;5081386;28;20459;-68
2023/01/10 09:08:03;;;;;;;5.27;3.37;;;6.00;81.90;;;5.59;74.10;98376.69;5060865;28;20462;-68
2023/01/10 09:10:30;;;;;;;5.50;3.40;;;6.00;81.60;;;5.35;74.46;98382.97;5082486;28;20509;-67
2023/01/10 09:13:00;;;;;;;7.40;3.00;;;6.00;81.30;;;5.41;74.56;98392.19;5084819;28;20480;-68
2023/01/10 09:15:30;;;;;;;5.40;3.90;;;5.90;81.50;;;5.70;74.31;98398.78;5067162;28;21152;-68
2023/01/10 09:18:01;;;;;;;8.50;3.70;;;6.00;81.90;;;5.45;73.90;98406.91;5082340;28;20459;-67
2023/01/10 09:20:29;;;;;;;5.07;3.40;;;6.00;81.40;;;5.50;74.86;98407.19;5084490;28;20463;-67
2023/01/10 09:22:57;;;;;;;10.10;3.93;;;5.90;81.60;;;5.33;74.53;98409.13;5078722;28;20572;-67
2023/01/10 09:25:25;;;;;;;6.77;3.80;;;5.90;81.60;;;5.56;73.75;98436.00;5081071;28;20517;-67
2023/01/10 09:27:58;;;;;;;12.30;3.50;;;6.00;81.60;;;5.40;74.46;98436.88;5081552;28;20468;-67
2023/01/10 09:30:25;;;;;;;9.20;3.50;;;5.90;81.60;;;4.99;74.10;98376.22;5085404;28;20474;-68
2023/01/10 09:32:55;;;;;;;4.90;3.00;;;5.80;81.40;;;5.34;74.72;98433.03;5080084;28;20787;-67
2023/01/10 09:35:25;;;;;;;7.00;3.60;;;5.90;81.50;;;5.55;74.25;98431.66;5062337;28;20955;-67
2023/01/10 09:37:54;;;;;;;6.50;3.27;;;5.90;81.60;;;5.65;73.10;98432.28;5083180;28;20874;-69
2023/01/10 09:40:33;;;;;;;5.93;3.07;;;6.00;81.20;;;5.77;72.48;98446.16;5080215;28;20793;-68
2023/01/10 09:43:11;;;;;;;6.10;2.90;;;6.10;81.10;;;5.56;73.18;98443.22;5064097;28;20489;-68
2023/01/10 09:45:50;;;;;;;6.03;3.30;;;6.10;80.60;;;5.67;72.61;98437.47;5082483;28;20490;-67
2023/01/10 09:48:24;;;;;;;8.77;3.60;;;6.10;80.60;;;5.63;72.82;98436.16;5066974;28;20483;-68
2023/01/10 09:51:10;;;;;;;11.30;4.00;;;6.10;80.50;;;5.83;72.44;98441.91;5085794;28;20539;-68
2023/01/10 09:53:42;;;;;;;11.40;4.60;;;6.20;80.80;;;5.90;73.13;98450.94;5083170;28;20545;-68
2023/01/10 09:56:13;;;;;;;4.23;3.70;;;6.30;80.90;;;5.91;72.41;98455.31;5081930;28;20475;-67
2023/01/10 09:58:42;;;;;;;5.00;3.37;;;6.30;80.70;;;5.92;72.65;98440.88;5085117;28;20495;-69
2023/01/10 10:01:15;;;;;;;9.57;3.93;;;6.30;80.60;;;6.11;72.31;98438.81;5082930;28;20456;-68
2023/01/10 10:03:54;;;;;;;9.50;4.30;;;6.40;80.50;;;6.00;72.22;98425.78;5069385;28;20574;-68
2023/01/10 10:06:23;;;;;;;9.37;4.03;;;6.40;80.20;;;6.03;72.25;98422.75;5080574;28;20871;-67
2023/01/10 10:08:52;;;;;;;7.40;3.50;;;6.40;80.50;;;5.95;72.06;98434.34;5077530;28;20476;-67
2023/01/10 10:11:56;;;;;;;7.67;3.27;;;6.30;80.00;;;6.14;70.76;98411.63;5082166;28;20448;-67
2023/01/10 10:14:41;;;;;;;4.17;3.27;;;6.50;79.70;;;6.51;69.73;98407.34;5065394;28;20467;-68
2023/01/10 10:17:32;;;;;;;5.13;3.20;;;6.70;79.40;;;6.66;68.86;98420.00;5087386;28;20455;-68
2023/01/10 10:20:16;;;;;;;6.67;3.87;;;6.80;78.90;;;6.63;69.21;98428.41;5062145;28;20447;-67
2023/01/10 10:22:57;;;;;;;6.07;3.63;;;6.90;78.70;;;6.57;68.79;98437.16;5058481;28;21161;-68
2023/01/10 10:25:44;;;;;;;5.00;3.20;;;6.90;78.20;;;5.24;69.45;98251.06;5081520;28;20466;-67
2023/01/10 10:28:49;;;;;;;9.10;3.60;;;6.80;78.20;;;6.39;69.27;98449.03;5086298;28;20950;-68
2023/01/10 10:31:27;;;;;;;6.40;3.40;;;6.70;78.00;;;6.33;68.81;98452.44;5085347;28;20468;-68
2023/01/10 10:34:02;;;;;;;13.90;3.70;;;6.70;77.80;;;6.24;69.43;98463.22;5087465;28;20568;-68
2023/01/10 10:36:39;;;;;;;6.13;3.10;;;6.60;77.80;;;6.41;68.80;98459.59;5086864;28;20458;-68
2023/01/10 10:39:14;;;;;;;5.83;3.80;;;6.60;77.90;;;6.43;68.17;98469.13;5082622;28;20456;-68
2023/01/10 10:41:45;;;;;;;5.17;3.10;;;6.70;77.60;;;6.34;68.43;98472.91;5069881;28;20455;-67
2023/01/10 10:44:38;;;;;;;9.13;3.63;;;6.60;77.40;;;6.04;69.52;98453.94;5063899;28;20447;-68
2023/01/10 10:47:15;;;;;;;7.47;3.03;;;6.50;77.40;;;6.26;69.03;98456.84;5082762;28;20831;-68
2023/01/10 10:49:50;;;;;;;9.40;4.00;;;6.50;77.80;;;6.29;69.08;98468.06;5087321;28;20532;-68
2023/01/10 10:52:25;;;;;;;7.87;3.83;;;6.60;77.90;;;6.05;69.41;98450.25;5086205;28;20467;-68
2023/01/10 10:54:54;;;;;;;3.33;3.00;;;6.50;77.60;;;6.38;67.72;98468.84;5085192;28;20544;-69